createdAt,value
2022-09-26T00:01:07.851Z,97344.03
2022-09-26T00:04:24.614Z,97339.69
2022-09-26T00:07:28.092Z,97332.03
2022-09-26T00:10:29.962Z,97340.13
2022-09-26T00:13:32.748Z,97334.94
2022-09-26T00:16:35.394Z,97330.75
2022-09-26T00:19:37.346Z,97331.78
2022-09-26T00:22:39.250Z,97322.25
2022-09-26T00:25:51.880Z,97318.50
2022-09-26T00:28:54.574Z,97325.31
2022-09-26T00:31:58.152Z,97322.16
2022-09-26T00:34:59.939Z,97316.03
2022-09-26T00:38:02.050Z,97323.50
2022-09-26T00:41:09.919Z,97316.22
2022-09-26T00:44:54.727Z,97312.59
2022-09-26T00:48:02.180Z,97304.13
2022-09-26T00:51:04.754Z,97307.22
2022-09-26T00:54:11.361Z,97309.22
2022-09-26T00:57:17.148Z,97300.69
2022-09-26T01:00:19.697Z,97301.88
2022-09-26T01:03:22.981Z,97303.97
2022-09-26T01:06:24.785Z,97305.66
2022-09-26T01:09:27.492Z,97301.31
2022-09-26T01:12:29.486Z,97300.63
2022-09-26T01:15:31.292Z,97298.13
2022-09-26T01:18:33.831Z,97286.59
2022-09-26T01:21:54.424Z,97288.13
2022-09-26T01:25:30.292Z,97275.41
2022-09-26T01:28:48.539Z,97267.22
2022-09-26T01:32:34.434Z,97266.13
2022-09-26T01:35:42.711Z,97259.06
2022-09-26T01:39:03.305Z,97243.72
2022-09-26T01:42:25.054Z,97240.78
2022-09-26T01:45:34.884Z,97234.59
2022-09-26T01:48:50.952Z,97224.69
2022-09-26T01:52:05.906Z,97224.19
2022-09-26T01:55:11.681Z,97224.94
2022-09-26T01:58:31.444Z,97224.56
2022-09-26T02:01:39.404Z,97212.25
2022-09-26T02:04:43.631Z,97215.69
2022-09-26T02:08:24.542Z,97218.03
2022-09-26T02:11:30.798Z,97214.19
2022-09-26T02:14:38.369Z,97210.75
2022-09-26T02:17:44.227Z,97216.03
2022-09-26T02:20:56.421Z,97217.84
2022-09-26T02:23:59.399Z,97214.56
2022-09-26T02:27:02.719Z,97211.13
2022-09-26T02:30:06.150Z,97211.75
2022-09-26T02:33:08.240Z,97206.72
2022-09-26T02:36:11.072Z,97204.84
2022-09-26T02:39:13.062Z,97203.22
2022-09-26T02:42:26.346Z,97200.34
2022-09-26T02:45:41.729Z,97196.06
2022-09-26T02:48:43.551Z,97194.53
2022-09-26T02:52:19.884Z,97198.44
2022-09-26T02:55:25.929Z,97188.00
2022-09-26T02:58:36.082Z,97190.78
2022-09-26T03:02:01.716Z,97185.47
2022-09-26T03:05:09.629Z,97187.13
2022-09-26T03:08:34.078Z,97183.56
2022-09-26T03:11:36.333Z,97185.66
2022-09-26T03:14:41.545Z,97189.72
2022-09-26T03:17:47.789Z,97181.75
2022-09-26T03:20:55.018Z,97174.59
2022-09-26T03:23:58.715Z,97166.50
2022-09-26T03:27:05.305Z,97167.31
2022-09-26T03:30:12.197Z,97149.84
2022-09-26T03:33:23.288Z,97152.13
2022-09-26T03:36:25.384Z,97152.59
2022-09-26T03:39:29.940Z,97150.97
2022-09-26T03:42:48.215Z,97153.72
2022-09-26T03:45:51.699Z,97144.16
2022-09-26T03:48:59.343Z,97150.97
2022-09-26T03:52:01.782Z,97150.50
2022-09-26T03:55:05.084Z,97150.72
2022-09-26T03:58:07.656Z,97156.16
2022-09-26T04:01:15.840Z,97150.59
2022-09-26T04:04:18.420Z,97146.44
2022-09-26T04:07:22.128Z,97145.63
2022-09-26T04:10:25.100Z,97144.44
2022-09-26T04:13:50.177Z,97151.69
2022-09-26T04:16:50.092Z,97153.50
2022-09-26T04:20:01.533Z,97149.09
2022-09-26T04:23:04.016Z,97144.59
2022-09-26T04:26:08.097Z,97143.84
2022-09-26T04:29:11.333Z,97148.84
2022-09-26T04:32:48.585Z,97144.59
2022-09-26T04:36:10.793Z,97139.69
2022-09-26T04:39:14.245Z,97145.72
2022-09-26T04:42:16.492Z,97129.91
2022-09-26T04:45:19.367Z,97126.66
2022-09-26T04:48:21.892Z,97126.44
2022-09-26T04:51:39.830Z,97122.63
2022-09-26T04:54:42.187Z,97130.16
2022-09-26T04:57:44.646Z,97129.59
2022-09-26T05:00:50.153Z,97125.13
2022-09-26T05:04:02.781Z,97123.22
2022-09-26T05:07:05.096Z,97121.88
2022-09-26T05:10:10.935Z,97124.06
2022-09-26T05:13:20.528Z,97128.72
2022-09-26T05:16:24.304Z,97122.19
2022-09-26T05:19:27.572Z,97122.63
2022-09-26T05:22:49.901Z,97117.72
2022-09-26T05:26:11.007Z,97127.69
2022-09-26T05:29:13.054Z,97128.38
2022-09-26T05:32:29.449Z,97119.03
2022-09-26T05:35:35.648Z,97127.09
2022-09-26T05:38:38.214Z,97117.59
2022-09-26T05:41:40.393Z,97120.59
2022-09-26T05:44:44.044Z,97123.00
2022-09-26T05:47:48.903Z,97118.53
2022-09-26T05:50:51.886Z,97116.13
2022-09-26T05:53:54.319Z,97120.72
2022-09-26T05:56:59.882Z,97111.19
2022-09-26T06:00:25.867Z,97118.53
2022-09-26T06:03:34.666Z,97114.56
2022-09-26T06:06:54.319Z,97116.53
2022-09-26T06:09:56.557Z,97115.53
2022-09-26T06:13:15.497Z,97115.00
2022-09-26T06:16:22.617Z,97114.06
2022-09-26T06:19:24.996Z,97118.91
2022-09-26T06:22:27.547Z,97114.06
2022-09-26T06:25:29.863Z,97113.97
2022-09-26T06:28:36.504Z,97114.22
2022-09-26T06:31:38.601Z,97118.06
2022-09-26T06:34:46.422Z,97115.41
2022-09-26T06:38:11.780Z,97121.75
2022-09-26T06:41:15.271Z,97119.38
2022-09-26T06:44:18.388Z,97121.41
2022-09-26T06:47:30.016Z,97121.47
2022-09-26T06:50:55.716Z,97133.31
2022-09-26T06:53:57.826Z,97121.19
2022-09-26T06:57:02.303Z,97125.25
2022-09-26T07:00:05.263Z,97120.38
2022-09-26T07:03:34.886Z,97119.03
2022-09-26T07:06:45.994Z,97118.84
2022-09-26T07:09:48.560Z,97122.13
2022-09-26T07:13:10.964Z,97124.75
2022-09-26T07:16:14.112Z,97117.22
2022-09-26T07:19:33.422Z,97121.69
2022-09-26T07:22:43.282Z,97126.94
2022-09-26T07:25:46.975Z,97131.44
2022-09-26T07:28:54.467Z,97135.16
2022-09-26T07:31:59.604Z,97128.69
2022-09-26T07:35:17.416Z,97130.50
2022-09-26T07:38:19.709Z,97129.97
2022-09-26T07:41:24.180Z,97133.13
2022-09-26T07:45:20.456Z,97129.19
2022-09-26T07:48:06.969Z,97128.72
2022-09-26T07:51:40.657Z,97139.44
2022-09-26T07:54:47.506Z,97140.41
2022-09-26T07:58:13.255Z,97148.22
2022-09-26T08:01:38.852Z,97146.06
2022-09-26T08:05:01.182Z,97147.97
2022-09-26T08:08:05.410Z,97139.81
2022-09-26T08:11:26.136Z,97138.31
2022-09-26T08:14:49.716Z,97135.16
2022-09-26T08:17:56.967Z,97136.19
2022-09-26T08:20:59.080Z,97130.91
2022-09-26T08:24:02.960Z,97139.63
2022-09-26T08:27:05.908Z,97136.06
2022-09-26T08:30:12.058Z,97139.56
2022-09-26T08:33:15.169Z,97143.06
2022-09-26T08:36:18.232Z,97134.63
2022-09-26T08:39:38.811Z,97128.16
2022-09-26T08:43:05.218Z,97135.44
2022-09-26T08:46:54.906Z,97135.06
2022-09-26T08:50:40.431Z,97136.09
2022-09-26T08:53:57.003Z,97141.38
2022-09-26T08:57:07.488Z,97135.44
2022-09-26T09:00:21.319Z,97139.53
2022-09-26T09:04:03.966Z,97146.41
2022-09-26T09:07:12.815Z,97138.66
2022-09-26T09:10:46.700Z,97145.13
2022-09-26T09:14:27.328Z,97148.69
2022-09-26T09:17:54.555Z,97156.50
2022-09-26T09:21:31.147Z,97153.69
2022-09-26T09:24:44.394Z,97154.59
2022-09-26T09:28:07.982Z,97147.22
2022-09-26T09:31:14.967Z,97148.44
2022-09-26T09:34:39.791Z,97141.97
2022-09-26T09:38:24.842Z,97147.28
2022-09-26T09:41:49.631Z,97146.50
2022-09-26T09:45:06.013Z,97155.22
2022-09-26T09:48:12.773Z,97150.94
2022-09-26T09:51:35.589Z,97146.03
2022-09-26T09:55:22.523Z,97144.63
2022-09-26T09:59:03.915Z,97141.19
2022-09-26T10:02:32.703Z,97137.94
2022-09-26T10:05:42.879Z,97129.59
2022-09-26T10:08:50.996Z,97136.72
2022-09-26T10:12:24.892Z,97140.34
2022-09-26T10:15:58.206Z,97136.28
2022-09-26T10:19:43.593Z,97133.38
2022-09-26T10:22:47.489Z,97132.16
2022-09-26T10:26:09.774Z,97132.97
2022-09-26T10:29:38.421Z,97132.50
2022-09-26T10:32:52.798Z,97130.53
2022-09-26T10:36:22.231Z,97135.00
2022-09-26T10:39:49.672Z,97134.09
2022-09-26T10:42:52.362Z,97126.72
2022-09-26T10:46:03.985Z,97126.50
2022-09-26T10:49:31.637Z,97125.25
2022-09-26T10:52:57.829Z,97130.53
2022-09-26T10:56:11.514Z,97120.53
2022-09-26T10:59:19.167Z,97128.38
2022-09-26T11:02:25.013Z,97132.72
2022-09-26T11:05:46.624Z,97128.09
2022-09-26T11:08:58.655Z,97125.22
2022-09-26T11:12:26.137Z,97126.16
2022-09-26T11:15:31.334Z,97120.03
2022-09-26T11:19:05.628Z,97116.63
2022-09-26T11:22:43.993Z,97121.28
2022-09-26T11:26:08.172Z,97103.59
2022-09-26T11:29:53.768Z,97101.81
2022-09-26T11:33:00.489Z,97118.31
2022-09-26T11:36:40.053Z,97116.69
2022-09-26T11:40:15.435Z,97114.53
2022-09-26T11:43:36.544Z,97112.44
2022-09-26T11:47:23.601Z,97109.16
2022-09-26T11:50:45.195Z,97108.28
2022-09-26T11:53:54.538Z,97100.00
2022-09-26T11:56:59.823Z,97096.19
2022-09-26T12:00:26.720Z,97093.41
2022-09-26T12:03:47.671Z,97089.63
2022-09-26T12:07:05.553Z,97089.16
2022-09-26T12:10:16.591Z,97084.88
2022-09-26T12:13:38.493Z,97081.97
2022-09-26T12:17:05.323Z,97074.31
2022-09-26T12:20:32.084Z,97070.09
2022-09-26T12:24:01.172Z,97073.69
2022-09-26T12:27:12.498Z,97070.50
2022-09-26T12:30:16.652Z,97083.59
2022-09-26T12:33:24.845Z,97083.47
2022-09-26T12:37:09.797Z,97083.28
2022-09-26T12:40:25.935Z,97084.53
2022-09-26T12:43:42.754Z,97082.56
2022-09-26T12:47:00.565Z,97074.50
2022-09-26T12:50:31.103Z,97072.38
2022-09-26T12:53:43.529Z,97070.50
2022-09-26T12:57:43.645Z,97062.25
2022-09-26T13:01:06.237Z,97068.75
2022-09-26T13:04:41.820Z,97070.16
2022-09-26T13:08:34.487Z,97073.00
2022-09-26T13:11:59.844Z,97059.22
2022-09-26T13:15:08.995Z,97059.34
2022-09-26T13:18:23.051Z,97056.66
2022-09-26T13:22:03.620Z,97055.75
2022-09-26T13:25:15.392Z,97047.72
2022-09-26T13:29:00.507Z,97045.28
2022-09-26T13:32:29.867Z,97035.88
2022-09-26T13:35:33.634Z,97034.56
2022-09-26T13:39:08.290Z,97024.25
2022-09-26T13:42:17.202Z,97030.16
2022-09-26T13:45:27.758Z,97023.13
2022-09-26T13:48:52.003Z,97019.09
2022-09-26T13:52:02.955Z,97019.38
2022-09-26T13:55:19.185Z,97011.88
2022-09-26T13:58:27.043Z,97014.47
2022-09-26T14:01:33.825Z,97012.88
2022-09-26T14:04:38.568Z,97009.03
2022-09-26T14:08:00.444Z,97011.63
2022-09-26T14:11:11.888Z,97015.88
2022-09-26T14:14:21.150Z,97013.81
2022-09-26T14:17:42.492Z,97012.56
2022-09-26T14:21:08.514Z,97018.97
2022-09-26T14:24:21.146Z,97020.22
2022-09-26T14:27:36.979Z,97017.09
2022-09-26T14:30:40.002Z,97015.97
2022-09-26T14:33:45.048Z,97008.31
2022-09-26T14:36:54.530Z,97005.22
2022-09-26T14:40:19.358Z,97004.63
2022-09-26T14:43:37.343Z,97005.34
2022-09-26T14:46:44.355Z,96996.81
2022-09-26T14:50:18.255Z,96998.38
2022-09-26T14:53:38.361Z,96999.06
2022-09-26T14:56:42.702Z,97003.78
2022-09-26T14:59:50.148Z,96995.41
2022-09-26T15:03:01.258Z,96989.88
2022-09-26T15:06:09.942Z,96992.47
2022-09-26T15:09:21.471Z,96981.94
2022-09-26T15:12:39.825Z,96980.22
2022-09-26T15:15:51.509Z,96974.56
2022-09-26T15:19:21.780Z,96969.53
2022-09-26T15:22:31.991Z,96968.56
2022-09-26T15:25:42.168Z,96975.16
2022-09-26T15:28:53.324Z,96972.50
2022-09-26T15:32:03.494Z,96965.66
2022-09-26T15:35:07.845Z,96965.53
2022-09-26T15:38:14.289Z,96972.16
2022-09-26T15:41:39.678Z,96986.00
2022-09-26T15:45:01.923Z,96981.84
2022-09-26T15:48:21.848Z,96973.72
2022-09-26T15:51:47.694Z,96985.34
2022-09-26T15:55:01.696Z,96976.47
2022-09-26T15:58:14.146Z,96973.81
2022-09-26T16:01:26.305Z,96979.38
2022-09-26T16:04:35.437Z,96980.75
2022-09-26T16:07:38.709Z,96980.63
2022-09-26T16:11:02.570Z,96971.13
2022-09-26T16:14:11.001Z,96969.75
2022-09-26T16:17:19.567Z,96974.88
2022-09-26T16:20:21.516Z,96971.66
2022-09-26T16:23:54.139Z,96968.16
2022-09-26T16:26:57.478Z,96959.66
2022-09-26T16:30:04.158Z,96964.72
2022-09-26T16:33:39.204Z,96959.25
2022-09-26T16:36:43.859Z,96967.03
2022-09-26T16:40:03.086Z,96958.91
2022-09-26T16:43:31.844Z,96953.03
2022-09-26T16:46:40.034Z,96958.91
2022-09-26T16:49:48.627Z,96957.91
2022-09-26T16:52:54.506Z,96956.47
2022-09-26T16:55:59.040Z,96968.03
2022-09-26T16:59:03.951Z,96966.78
2022-09-26T17:02:09.437Z,96969.22
2022-09-26T17:05:20.899Z,96968.56
2022-09-26T17:08:24.439Z,96975.31
2022-09-26T17:11:30.853Z,96977.97
2022-09-26T17:14:40.882Z,96976.31
2022-09-26T17:17:43.563Z,96970.59
2022-09-26T17:20:46.982Z,96980.09
2022-09-26T17:23:49.572Z,96977.44
2022-09-26T17:26:55.613Z,96981.91
2022-09-26T17:30:03.665Z,96991.66
2022-09-26T17:33:07.829Z,96989.97
2022-09-26T17:36:18.947Z,96990.97
2022-09-26T17:39:28.698Z,96993.00
2022-09-26T17:42:30.961Z,96992.69
2022-09-26T17:45:45.538Z,96992.22
2022-09-26T17:48:48.570Z,96994.66
2022-09-26T17:51:51.303Z,97005.50
2022-09-26T17:54:57.747Z,97000.28
2022-09-26T17:58:00.175Z,96995.00
2022-09-26T18:01:24.359Z,96990.56
2022-09-26T18:04:27.662Z,96994.19
2022-09-26T18:07:41.526Z,96984.03
2022-09-26T18:10:57.177Z,96991.25
2022-09-26T18:13:59.599Z,96993.69
2022-09-26T18:17:07.477Z,96994.44
2022-09-26T18:20:10.092Z,96995.59
2022-09-26T18:23:25.308Z,96992.22
2022-09-26T18:26:32.785Z,96996.00
2022-09-26T18:30:02.801Z,96990.13
2022-09-26T18:33:08.983Z,96989.44
2022-09-26T18:36:13.010Z,96999.28
2022-09-26T18:39:15.426Z,96997.50
2022-09-26T18:42:28.098Z,96998.41
2022-09-26T18:45:36.789Z,97001.66
2022-09-26T18:48:39.158Z,96996.03
2022-09-26T18:51:41.813Z,96999.22
2022-09-26T18:54:45.684Z,96997.53
2022-09-26T18:58:06.110Z,97000.16
2022-09-26T19:01:13.339Z,97003.53
2022-09-26T19:04:21.908Z,97000.94
2022-09-26T19:07:24.624Z,97005.69
2022-09-26T19:10:27.306Z,96993.03
2022-09-26T19:13:30.991Z,96998.22
2022-09-26T19:16:33.511Z,96998.75
2022-09-26T19:19:35.758Z,97000.84
2022-09-26T19:22:38.091Z,97012.09
2022-09-26T19:25:40.723Z,97000.22
2022-09-26T19:28:42.793Z,96994.28
2022-09-26T19:31:44.770Z,96996.28
2022-09-26T19:34:53.411Z,96993.69
2022-09-26T19:37:55.547Z,96997.41
2022-09-26T19:40:57.839Z,96996.16
2022-09-26T19:43:59.986Z,96998.06
2022-09-26T19:47:04.008Z,97002.03
2022-09-26T19:50:06.898Z,97003.31
2022-09-26T19:53:16.792Z,97005.22
2022-09-26T19:56:18.906Z,96999.88
2022-09-26T19:59:24.161Z,97003.31
2022-09-26T20:02:32.172Z,96998.06
2022-09-26T20:05:34.610Z,96997.78
2022-09-26T20:08:36.947Z,96989.28
2022-09-26T20:11:39.122Z,96985.81
2022-09-26T20:14:42.258Z,96993.06
2022-09-26T20:17:46.294Z,96987.44
2022-09-26T20:20:53.115Z,96991.69
2022-09-26T20:23:56.978Z,96984.72
2022-09-26T20:27:01.275Z,96997.13
2022-09-26T20:30:25.922Z,96992.31
2022-09-26T20:33:28.687Z,96992.31
2022-09-26T20:36:32.507Z,96991.06
2022-09-26T20:39:34.755Z,96989.41
2022-09-26T20:42:38.374Z,96990.75
2022-09-26T20:45:41.057Z,96989.78
2022-09-26T20:48:44.117Z,96998.03
2022-09-26T20:51:46.266Z,96992.78
2022-09-26T20:54:48.454Z,96984.72
2022-09-26T20:57:50.910Z,96985.16
2022-09-26T21:00:56.778Z,96985.50
2022-09-26T21:03:58.906Z,96987.56
2022-09-26T21:07:00.707Z,96983.84
2022-09-26T21:10:02.867Z,96979.25
2022-09-26T21:13:04.676Z,96976.16
2022-09-26T21:16:06.856Z,96970.34
2022-09-26T21:19:18.912Z,96971.09
2022-09-26T21:22:25.986Z,96967.94
2022-09-26T21:25:31.888Z,96961.25
2022-09-26T21:28:33.994Z,96959.34
2022-09-26T21:31:36.194Z,96958.69
2022-09-26T21:34:39.106Z,96962.31
2022-09-26T21:37:44.347Z,96959.41
2022-09-26T21:40:49.784Z,96953.44
2022-09-26T21:43:58.553Z,96941.84
2022-09-26T21:47:00.385Z,96935.25
2022-09-26T21:50:05.834Z,96947.53
2022-09-26T21:53:12.298Z,96939.19
2022-09-26T21:56:18.454Z,96932.16
2022-09-26T21:59:21.664Z,96920.66
2022-09-26T22:02:24.716Z,96928.34
2022-09-26T22:05:26.977Z,96932.22
2022-09-26T22:08:28.751Z,96929.31
2022-09-26T22:11:31.003Z,96922.25
2022-09-26T22:14:33.275Z,96918.34
2022-09-26T22:17:35.325Z,96907.69
2022-09-26T22:20:37.133Z,96904.06
2022-09-26T22:23:39.252Z,96903.03
2022-09-26T22:26:41.284Z,96902.34
2022-09-26T22:29:43.090Z,96893.13
2022-09-26T22:32:44.975Z,96891.47
2022-09-26T22:35:47.792Z,96886.38
2022-09-26T22:38:50.263Z,96879.50
2022-09-26T22:41:52.812Z,96880.50
2022-09-26T22:44:54.546Z,96869.16
2022-09-26T22:47:56.773Z,96874.31
2022-09-26T22:50:58.904Z,96874.06
2022-09-26T22:54:00.782Z,96871.09
2022-09-26T22:57:02.655Z,96865.03
2022-09-26T23:00:04.863Z,96858.88
2022-09-26T23:03:06.770Z,96862.75
2022-09-26T23:06:09.297Z,96853.06
2022-09-26T23:09:11.090Z,96864.75
2022-09-26T23:12:13.152Z,96858.50
2022-09-26T23:15:18.439Z,96863.22
2022-09-26T23:18:20.616Z,96859.22
2022-09-26T23:21:24.153Z,96849.59
2022-09-26T23:24:25.954Z,96851.50
2022-09-26T23:27:27.762Z,96842.81
2022-09-26T23:30:30.308Z,96842.00
2022-09-26T23:33:32.830Z,96846.91
2022-09-26T23:36:34.732Z,96839.66
2022-09-26T23:39:36.538Z,96834.75
2022-09-26T23:42:42.187Z,96837.13
2022-09-26T23:45:44.110Z,96830.81
2022-09-26T23:48:46.397Z,96823.66
2022-09-26T23:51:48.208Z,96830.00
2022-09-26T23:54:49.987Z,96823.75
2022-09-26T23:57:51.752Z,96825.75
